sensor_id;sensor_type;location;lat;lon;timestamp;P1;durP1;ratioP1;P2;durP2;ratioP2
73678;SDS011;61978;52.742;16.962;2022-10-23T00:01:35;458.53;;;68.92;;
73678;SDS011;61978;52.742;16.962;2022-10-23T00:04:06;467.37;;;66.35;;
73678;SDS011;61978;52.742;16.962;2022-10-23T00:06:36;539.67;;;74.92;;
73678;SDS011;61978;52.742;16.962;2022-10-23T00:09:05;410.67;;;61.60;;
73678;SDS011;61978;52.742;16.962;2022-10-23T00:11:33;437.48;;;64.85;;
73678;SDS011;61978;52.742;16.962;2022-10-23T00:14:02;383.45;;;59.67;;
73678;SDS011;61978;52.742;16.962;2022-10-23T00:16:30;404.83;;;57.43;;
73678;SDS011;61978;52.742;16.962;2022-10-23T00:18:58;497.33;;;63.80;;
73678;SDS011;61978;52.742;16.962;2022-10-23T00:21:25;460.93;;;61.53;;
73678;SDS011;61978;52.742;16.962;2022-10-23T00:23:54;440.25;;;59.77;;
73678;SDS011;61978;52.742;16.962;2022-10-23T00:26:22;441.95;;;57.48;;
73678;SDS011;61978;52.742;16.962;2022-10-23T00:28:50;409.83;;;58.50;;
73678;SDS011;61978;52.742;16.962;2022-10-23T00:31:18;446.03;;;59.90;;
73678;SDS011;61978;52.742;16.962;2022-10-23T00:33:47;506.37;;;65.75;;
73678;SDS011;61978;52.742;16.962;2022-10-23T00:36:14;458.55;;;60.92;;
73678;SDS011;61978;52.742;16.962;2022-10-23T00:38:46;478.30;;;60.80;;
73678;SDS011;61978;52.742;16.962;2022-10-23T00:41:17;477.02;;;62.70;;
73678;SDS011;61978;52.742;16.962;2022-10-23T00:43:57;557.65;;;68.15;;
73678;SDS011;61978;52.742;16.962;2022-10-23T00:46:28;584.45;;;68.70;;
73678;SDS011;61978;52.742;16.962;2022-10-23T00:48:55;499.60;;;62.15;;
73678;SDS011;61978;52.742;16.962;2022-10-23T00:51:23;608.65;;;70.80;;
73678;SDS011;61978;52.742;16.962;2022-10-23T00:53:54;614.35;;;68.85;;
73678;SDS011;61978;52.742;16.962;2022-10-23T00:56:24;556.30;;;64.90;;
73678;SDS011;61978;52.742;16.962;2022-10-23T00:58:52;515.58;;;62.20;;
73678;SDS011;61978;52.742;16.962;2022-10-23T01:01:20;526.10;;;64.12;;
73678;SDS011;61978;52.742;16.962;2022-10-23T01:03:49;554.02;;;65.65;;
73678;SDS011;61978;52.742;16.962;2022-10-23T01:06:25;607.88;;;72.70;;
73678;SDS011;61978;52.742;16.962;2022-10-23T01:08:55;674.95;;;76.37;;
73678;SDS011;61978;52.742;16.962;2022-10-23T01:16:59;621.40;;;72.87;;
73678;SDS011;61978;52.742;16.962;2022-10-23T01:27:31;559.40;;;72.40;;
73678;SDS011;61978;52.742;16.962;2022-10-23T01:30:06;439.87;;;61.83;;
73678;SDS011;61978;52.742;16.962;2022-10-23T01:35:22;430.33;;;59.98;;
73678;SDS011;61978;52.742;16.962;2022-10-23T01:37:54;548.90;;;70.42;;
73678;SDS011;61978;52.742;16.962;2022-10-23T01:40:46;564.78;;;70.80;;
73678;SDS011;61978;52.742;16.962;2022-10-23T01:43:33;497.00;;;65.08;;
73678;SDS011;61978;52.742;16.962;2022-10-23T01:46:02;430.43;;;57.98;;
73678;SDS011;61978;52.742;16.962;2022-10-23T01:48:34;395.70;;;59.20;;
73678;SDS011;61978;52.742;16.962;2022-10-23T01:51:04;409.75;;;56.40;;
73678;SDS011;61978;52.742;16.962;2022-10-23T01:53:38;390.45;;;57.15;;
73678;SDS011;61978;52.742;16.962;2022-10-23T01:56:10;460.45;;;64.20;;
73678;SDS011;61978;52.742;16.962;2022-10-23T01:58:39;352.52;;;55.63;;
73678;SDS011;61978;52.742;16.962;2022-10-23T02:01:10;307.98;;;51.95;;
73678;SDS011;61978;52.742;16.962;2022-10-23T02:03:41;400.12;;;57.08;;
73678;SDS011;61978;52.742;16.962;2022-10-23T02:06:10;429.40;;;58.20;;
73678;SDS011;61978;52.742;16.962;2022-10-23T02:08:37;402.35;;;58.13;;
73678;SDS011;61978;52.742;16.962;2022-10-23T02:11:10;384.45;;;55.23;;
73678;SDS011;61978;52.742;16.962;2022-10-23T02:13:42;436.05;;;58.73;;
73678;SDS011;61978;52.742;16.962;2022-10-23T02:16:14;310.77;;;55.15;;
73678;SDS011;61978;52.742;16.962;2022-10-23T02:18:50;321.33;;;53.60;;
73678;SDS011;61978;52.742;16.962;2022-10-23T02:21:24;302.27;;;52.67;;
73678;SDS011;61978;52.742;16.962;2022-10-23T02:24:02;250.18;;;49.95;;
73678;SDS011;61978;52.742;16.962;2022-10-23T02:26:35;393.27;;;56.35;;
73678;SDS011;61978;52.742;16.962;2022-10-23T02:31:43;221.53;;;48.70;;
73678;SDS011;61978;52.742;16.962;2022-10-23T02:34:10;216.78;;;51.83;;
73678;SDS011;61978;52.742;16.962;2022-10-23T02:36:37;194.17;;;48.98;;
73678;SDS011;61978;52.742;16.962;2022-10-23T02:39:05;178.78;;;50.00;;
73678;SDS011;61978;52.742;16.962;2022-10-23T02:47:17;172.05;;;50.15;;
73678;SDS011;61978;52.742;16.962;2022-10-23T02:49:48;163.45;;;50.28;;
73678;SDS011;61978;52.742;16.962;2022-10-23T02:57:51;155.65;;;48.98;;
73678;SDS011;61978;52.742;16.962;2022-10-23T03:00:30;150.90;;;49.48;;
73678;SDS011;61978;52.742;16.962;2022-10-23T03:03:05;132.60;;;47.85;;
73678;SDS011;61978;52.742;16.962;2022-10-23T03:05:35;131.40;;;46.60;;
73678;SDS011;61978;52.742;16.962;2022-10-23T03:08:04;129.23;;;47.35;;
73678;SDS011;61978;52.742;16.962;2022-10-23T03:10:34;117.50;;;46.33;;
73678;SDS011;61978;52.742;16.962;2022-10-23T03:13:01;120.45;;;45.12;;
73678;SDS011;61978;52.742;16.962;2022-10-23T03:15:30;126.92;;;49.15;;
73678;SDS011;61978;52.742;16.962;2022-10-23T03:17:56;129.25;;;46.18;;
73678;SDS011;61978;52.742;16.962;2022-10-23T03:20:23;121.90;;;46.02;;
73678;SDS011;61978;52.742;16.962;2022-10-23T03:22:51;118.15;;;46.92;;
73678;SDS011;61978;52.742;16.962;2022-10-23T03:25:27;125.82;;;51.10;;
73678;SDS011;61978;52.742;16.962;2022-10-23T03:27:55;130.00;;;47.40;;
73678;SDS011;61978;52.742;16.962;2022-10-23T03:30:25;123.58;;;46.40;;
73678;SDS011;61978;52.742;16.962;2022-10-23T03:32:53;117.85;;;45.33;;
73678;SDS011;61978;52.742;16.962;2022-10-23T03:35:21;125.90;;;47.50;;
73678;SDS011;61978;52.742;16.962;2022-10-23T03:37:48;126.80;;;46.73;;
73678;SDS011;61978;52.742;16.962;2022-10-23T03:40:16;127.40;;;47.67;;
73678;SDS011;61978;52.742;16.962;2022-10-23T03:42:43;119.90;;;46.37;;
73678;SDS011;61978;52.742;16.962;2022-10-23T03:45:12;117.80;;;47.70;;
73678;SDS011;61978;52.742;16.962;2022-10-23T03:47:41;109.97;;;47.38;;
73678;SDS011;61978;52.742;16.962;2022-10-23T03:50:09;112.70;;;45.33;;
73678;SDS011;61978;52.742;16.962;2022-10-23T03:52:38;118.15;;;47.45;;
73678;SDS011;61978;52.742;16.962;2022-10-23T03:55:06;108.15;;;45.05;;
73678;SDS011;61978;52.742;16.962;2022-10-23T03:57:35;115.12;;;44.83;;
73678;SDS011;61978;52.742;16.962;2022-10-23T04:00:03;99.32;;;44.35;;
73678;SDS011;61978;52.742;16.962;2022-10-23T04:02:34;105.50;;;44.27;;
73678;SDS011;61978;52.742;16.962;2022-10-23T04:05:02;94.95;;;43.02;;
73678;SDS011;61978;52.742;16.962;2022-10-23T04:07:32;98.03;;;42.08;;
73678;SDS011;61978;52.742;16.962;2022-10-23T04:10:01;108.57;;;43.65;;
73678;SDS011;61978;52.742;16.962;2022-10-23T04:12:29;97.30;;;41.28;;
73678;SDS011;61978;52.742;16.962;2022-10-23T04:14:57;103.30;;;42.88;;
73678;SDS011;61978;52.742;16.962;2022-10-23T04:17:24;96.85;;;40.98;;
73678;SDS011;61978;52.742;16.962;2022-10-23T04:19:51;94.50;;;42.15;;
73678;SDS011;61978;52.742;16.962;2022-10-23T04:22:19;97.45;;;42.40;;
73678;SDS011;61978;52.742;16.962;2022-10-23T04:24:48;99.67;;;43.28;;
73678;SDS011;61978;52.742;16.962;2022-10-23T04:27:24;90.95;;;43.92;;
73678;SDS011;61978;52.742;16.962;2022-10-23T04:29:52;87.20;;;42.55;;
73678;SDS011;61978;52.742;16.962;2022-10-23T04:32:19;95.57;;;42.55;;
73678;SDS011;61978;52.742;16.962;2022-10-23T04:34:47;100.33;;;44.48;;
73678;SDS011;61978;52.742;16.962;2022-10-23T04:37:15;94.62;;;43.50;;
73678;SDS011;61978;52.742;16.962;2022-10-23T04:39:44;90.77;;;43.78;;
73678;SDS011;61978;52.742;16.962;2022-10-23T04:42:12;100.90;;;44.10;;
73678;SDS011;61978;52.742;16.962;2022-10-23T04:44:40;94.50;;;43.25;;
73678;SDS011;61978;52.742;16.962;2022-10-23T04:47:09;96.72;;;43.15;;
73678;SDS011;61978;52.742;16.962;2022-10-23T04:49:38;88.60;;;41.77;;
73678;SDS011;61978;52.742;16.962;2022-10-23T04:52:13;84.15;;;40.20;;
73678;SDS011;61978;52.742;16.962;2022-10-23T04:54:58;82.10;;;40.12;;
73678;SDS011;61978;52.742;16.962;2022-10-23T04:57:26;82.37;;;38.75;;
73678;SDS011;61978;52.742;16.962;2022-10-23T04:59:55;81.82;;;37.90;;
73678;SDS011;61978;52.742;16.962;2022-10-23T05:02:23;82.97;;;38.90;;
73678;SDS011;61978;52.742;16.962;2022-10-23T05:04:50;83.95;;;40.23;;
73678;SDS011;61978;52.742;16.962;2022-10-23T05:07:34;91.32;;;40.48;;
73678;SDS011;61978;52.742;16.962;2022-10-23T05:10:07;94.67;;;39.63;;
73678;SDS011;61978;52.742;16.962;2022-10-23T05:12:38;77.53;;;38.35;;
73678;SDS011;61978;52.742;16.962;2022-10-23T05:15:06;84.05;;;38.63;;
73678;SDS011;61978;52.742;16.962;2022-10-23T05:17:34;86.63;;;38.02;;
73678;SDS011;61978;52.742;16.962;2022-10-23T05:20:04;84.35;;;39.27;;
73678;SDS011;61978;52.742;16.962;2022-10-23T05:22:38;84.50;;;39.40;;
73678;SDS011;61978;52.742;16.962;2022-10-23T05:25:10;77.80;;;39.48;;
73678;SDS011;61978;52.742;16.962;2022-10-23T05:27:40;82.20;;;37.78;;
73678;SDS011;61978;52.742;16.962;2022-10-23T05:30:09;80.28;;;38.17;;
73678;SDS011;61978;52.742;16.962;2022-10-23T05:32:36;88.03;;;40.15;;
73678;SDS011;61978;52.742;16.962;2022-10-23T05:35:08;84.60;;;40.52;;
73678;SDS011;61978;52.742;16.962;2022-10-23T05:37:45;93.35;;;38.17;;
73678;SDS011;61978;52.742;16.962;2022-10-23T05:40:19;91.60;;;40.85;;
73678;SDS011;61978;52.742;16.962;2022-10-23T05:42:48;77.78;;;39.65;;
73678;SDS011;61978;52.742;16.962;2022-10-23T05:45:17;86.45;;;39.65;;
73678;SDS011;61978;52.742;16.962;2022-10-23T05:47:55;78.47;;;39.18;;
73678;SDS011;61978;52.742;16.962;2022-10-23T05:50:23;88.15;;;39.30;;
73678;SDS011;61978;52.742;16.962;2022-10-23T05:52:55;87.53;;;38.30;;
73678;SDS011;61978;52.742;16.962;2022-10-23T05:55:32;84.77;;;38.73;;
73678;SDS011;61978;52.742;16.962;2022-10-23T05:58:01;83.30;;;39.95;;
73678;SDS011;61978;52.742;16.962;2022-10-23T06:00:32;96.92;;;40.30;;
73678;SDS011;61978;52.742;16.962;2022-10-23T06:03:01;88.12;;;39.48;;
73678;SDS011;61978;52.742;16.962;2022-10-23T06:05:32;80.67;;;38.25;;
73678;SDS011;61978;52.742;16.962;2022-10-23T06:08:01;83.60;;;40.05;;
73678;SDS011;61978;52.742;16.962;2022-10-23T06:10:29;89.47;;;40.85;;
73678;SDS011;61978;52.742;16.962;2022-10-23T06:12:58;78.35;;;37.95;;
73678;SDS011;61978;52.742;16.962;2022-10-23T06:15:25;81.32;;;39.33;;
73678;SDS011;61978;52.742;16.962;2022-10-23T06:17:59;80.50;;;36.28;;
73678;SDS011;61978;52.742;16.962;2022-10-23T06:20:27;81.80;;;36.75;;
73678;SDS011;61978;52.742;16.962;2022-10-23T06:22:55;75.97;;;36.70;;
73678;SDS011;61978;52.742;16.962;2022-10-23T06:25:24;76.92;;;37.03;;
73678;SDS011;61978;52.742;16.962;2022-10-23T06:27:52;76.75;;;36.93;;
73678;SDS011;61978;52.742;16.962;2022-10-23T06:30:19;70.80;;;34.85;;
73678;SDS011;61978;52.742;16.962;2022-10-23T06:32:46;73.45;;;37.53;;
73678;SDS011;61978;52.742;16.962;2022-10-23T06:35:13;76.65;;;36.90;;
73678;SDS011;61978;52.742;16.962;2022-10-23T06:37:41;73.17;;;37.13;;
73678;SDS011;61978;52.742;16.962;2022-10-23T06:40:11;67.45;;;35.33;;
73678;SDS011;61978;52.742;16.962;2022-10-23T06:42:40;73.45;;;34.23;;
73678;SDS011;61978;52.742;16.962;2022-10-23T06:45:13;66.17;;;33.13;;
73678;SDS011;61978;52.742;16.962;2022-10-23T06:47:59;67.65;;;31.93;;
73678;SDS011;61978;52.742;16.962;2022-10-23T06:50:35;74.35;;;33.83;;
73678;SDS011;61978;52.742;16.962;2022-10-23T06:53:08;68.20;;;33.95;;
73678;SDS011;61978;52.742;16.962;2022-10-23T06:55:38;68.52;;;33.02;;
73678;SDS011;61978;52.742;16.962;2022-10-23T06:58:07;68.62;;;33.10;;
73678;SDS011;61978;52.742;16.962;2022-10-23T07:00:37;72.47;;;32.88;;
73678;SDS011;61978;52.742;16.962;2022-10-23T07:03:07;69.15;;;33.10;;
73678;SDS011;61978;52.742;16.962;2022-10-23T07:05:35;64.03;;;33.40;;
73678;SDS011;61978;52.742;16.962;2022-10-23T07:08:05;54.70;;;30.27;;
73678;SDS011;61978;52.742;16.962;2022-10-23T07:10:34;59.23;;;30.08;;
73678;SDS011;61978;52.742;16.962;2022-10-23T07:13:03;62.73;;;31.57;;
73678;SDS011;61978;52.742;16.962;2022-10-23T07:15:35;65.08;;;30.23;;
73678;SDS011;61978;52.742;16.962;2022-10-23T07:18:04;52.08;;;31.65;;
73678;SDS011;61978;52.742;16.962;2022-10-23T07:20:41;54.15;;;31.52;;
73678;SDS011;61978;52.742;16.962;2022-10-23T07:23:10;53.85;;;30.62;;
73678;SDS011;61978;52.742;16.962;2022-10-23T07:25:38;63.55;;;43.95;;
73678;SDS011;61978;52.742;16.962;2022-10-23T07:28:05;50.17;;;29.63;;
73678;SDS011;61978;52.742;16.962;2022-10-23T07:30:31;48.80;;;29.60;;
73678;SDS011;61978;52.742;16.962;2022-10-23T07:32:59;53.15;;;33.53;;
73678;SDS011;61978;52.742;16.962;2022-10-23T07:35:46;56.13;;;33.18;;
73678;SDS011;61978;52.742;16.962;2022-10-23T07:38:17;53.52;;;31.35;;
73678;SDS011;61978;52.742;16.962;2022-10-23T07:40:46;53.00;;;30.97;;
73678;SDS011;61978;52.742;16.962;2022-10-23T07:43:17;44.10;;;28.30;;
73678;SDS011;61978;52.742;16.962;2022-10-23T07:45:46;47.20;;;28.95;;
73678;SDS011;61978;52.742;16.962;2022-10-23T07:48:16;40.25;;;26.02;;
73678;SDS011;61978;52.742;16.962;2022-10-23T07:50:48;38.35;;;25.68;;
73678;SDS011;61978;52.742;16.962;2022-10-23T07:53:17;37.90;;;28.60;;
73678;SDS011;61978;52.742;16.962;2022-10-23T07:55:57;38.88;;;24.37;;
73678;SDS011;61978;52.742;16.962;2022-10-23T07:58:22;41.00;;;25.75;;
73678;SDS011;61978;52.742;16.962;2022-10-23T08:00:54;35.70;;;25.45;;
73678;SDS011;61978;52.742;16.962;2022-10-23T08:03:25;45.98;;;32.35;;
73678;SDS011;61978;52.742;16.962;2022-10-23T08:05:57;46.98;;;29.37;;
73678;SDS011;61978;52.742;16.962;2022-10-23T08:08:25;34.03;;;24.27;;
73678;SDS011;61978;52.742;16.962;2022-10-23T08:10:54;35.85;;;24.50;;
73678;SDS011;61978;52.742;16.962;2022-10-23T08:13:23;47.83;;;31.20;;
73678;SDS011;61978;52.742;16.962;2022-10-23T08:15:51;40.67;;;31.25;;
73678;SDS011;61978;52.742;16.962;2022-10-23T08:18:19;37.53;;;26.55;;
73678;SDS011;61978;52.742;16.962;2022-10-23T08:20:46;41.85;;;25.02;;
73678;SDS011;61978;52.742;16.962;2022-10-23T08:23:16;43.52;;;24.63;;
73678;SDS011;61978;52.742;16.962;2022-10-23T08:25:44;42.55;;;26.42;;
73678;SDS011;61978;52.742;16.962;2022-10-23T08:28:13;34.48;;;24.25;;
73678;SDS011;61978;52.742;16.962;2022-10-23T08:30:42;42.55;;;25.95;;
73678;SDS011;61978;52.742;16.962;2022-10-23T08:33:09;32.85;;;24.77;;
73678;SDS011;61978;52.742;16.962;2022-10-23T08:35:36;36.77;;;25.80;;
73678;SDS011;61978;52.742;16.962;2022-10-23T08:38:04;36.23;;;23.27;;
73678;SDS011;61978;52.742;16.962;2022-10-23T08:40:33;32.80;;;23.05;;
73678;SDS011;61978;52.742;16.962;2022-10-23T08:43:07;27.17;;;22.90;;
73678;SDS011;61978;52.742;16.962;2022-10-23T08:45:50;32.78;;;21.80;;
73678;SDS011;61978;52.742;16.962;2022-10-23T08:48:32;34.75;;;23.65;;
73678;SDS011;61978;52.742;16.962;2022-10-23T08:51:48;27.80;;;22.75;;
73678;SDS011;61978;52.742;16.962;2022-10-23T08:53:53;29.60;;;22.80;;
73678;SDS011;61978;52.742;16.962;2022-10-23T08:56:39;40.80;;;23.45;;
73678;SDS011;61978;52.742;16.962;2022-10-23T08:59:14;30.62;;;23.95;;
73678;SDS011;61978;52.742;16.962;2022-10-23T09:01:46;34.05;;;23.02;;
73678;SDS011;61978;52.742;16.962;2022-10-23T09:04:16;37.20;;;23.50;;
73678;SDS011;61978;52.742;16.962;2022-10-23T09:12:06;37.58;;;25.37;;
73678;SDS011;61978;52.742;16.962;2022-10-23T09:17:23;38.05;;;25.20;;
73678;SDS011;61978;52.742;16.962;2022-10-23T09:19:54;41.85;;;28.50;;
73678;SDS011;61978;52.742;16.962;2022-10-23T09:22:21;37.03;;;27.45;;
73678;SDS011;61978;52.742;16.962;2022-10-23T09:24:48;36.28;;;25.97;;
73678;SDS011;61978;52.742;16.962;2022-10-23T09:27:15;36.93;;;27.20;;
73678;SDS011;61978;52.742;16.962;2022-10-23T09:29:46;40.28;;;30.35;;
73678;SDS011;61978;52.742;16.962;2022-10-23T09:32:17;38.73;;;26.15;;
73678;SDS011;61978;52.742;16.962;2022-10-23T09:34:52;37.17;;;26.65;;
73678;SDS011;61978;52.742;16.962;2022-10-23T09:37:21;46.50;;;27.37;;
73678;SDS011;61978;52.742;16.962;2022-10-23T09:42:49;38.98;;;26.17;;
73678;SDS011;61978;52.742;16.962;2022-10-23T09:45:26;41.55;;;28.92;;
73678;SDS011;61978;52.742;16.962;2022-10-23T09:48:04;42.60;;;28.12;;
73678;SDS011;61978;52.742;16.962;2022-10-23T09:50:32;41.77;;;26.27;;
73678;SDS011;61978;52.742;16.962;2022-10-23T09:52:59;43.63;;;27.00;;
73678;SDS011;61978;52.742;16.962;2022-10-23T09:55:25;40.23;;;27.25;;
73678;SDS011;61978;52.742;16.962;2022-10-23T09:57:52;37.00;;;26.05;;
73678;SDS011;61978;52.742;16.962;2022-10-23T10:00:20;38.63;;;27.65;;
73678;SDS011;61978;52.742;16.962;2022-10-23T10:05:35;34.63;;;27.22;;
73678;SDS011;61978;52.742;16.962;2022-10-23T10:13:38;38.05;;;26.93;;
73678;SDS011;61978;52.742;16.962;2022-10-23T10:18:57;43.15;;;28.52;;
73678;SDS011;61978;52.742;16.962;2022-10-23T10:24:38;38.10;;;25.90;;
73678;SDS011;61978;52.742;16.962;2022-10-23T10:27:09;38.08;;;26.02;;
73678;SDS011;61978;52.742;16.962;2022-10-23T10:40:32;26.73;;;20.85;;
73678;SDS011;61978;52.742;16.962;2022-10-23T10:43:10;30.85;;;22.22;;
73678;SDS011;61978;52.742;16.962;2022-10-23T10:45:48;32.08;;;22.15;;
73678;SDS011;61978;52.742;16.962;2022-10-23T10:48:48;31.35;;;22.55;;
73678;SDS011;61978;52.742;16.962;2022-10-23T10:56:26;33.95;;;22.82;;
73678;SDS011;61978;52.742;16.962;2022-10-23T10:59:00;32.20;;;21.30;;
73678;SDS011;61978;52.742;16.962;2022-10-23T11:04:29;32.10;;;24.00;;
73678;SDS011;61978;52.742;16.962;2022-10-23T11:07:14;34.25;;;22.20;;
73678;SDS011;61978;52.742;16.962;2022-10-23T11:09:44;33.18;;;23.18;;
73678;SDS011;61978;52.742;16.962;2022-10-23T11:12:22;35.13;;;24.92;;
73678;SDS011;61978;52.742;16.962;2022-10-23T11:14:50;36.63;;;25.75;;
73678;SDS011;61978;52.742;16.962;2022-10-23T11:17:20;35.13;;;25.75;;
73678;SDS011;61978;52.742;16.962;2022-10-23T11:20:00;32.63;;;23.22;;
73678;SDS011;61978;52.742;16.962;2022-10-23T11:22:34;40.50;;;25.10;;
73678;SDS011;61978;52.742;16.962;2022-10-23T11:30:34;34.38;;;21.70;;
73678;SDS011;61978;52.742;16.962;2022-10-23T11:33:15;35.00;;;21.37;;
73678;SDS011;61978;52.742;16.962;2022-10-23T11:38:47;33.13;;;21.12;;
73678;SDS011;61978;52.742;16.962;2022-10-23T11:41:17;29.25;;;20.77;;
73678;SDS011;61978;52.742;16.962;2022-10-23T11:43:47;30.15;;;21.75;;
73678;SDS011;61978;52.742;16.962;2022-10-23T11:48:54;32.10;;;22.05;;
73678;SDS011;61978;52.742;16.962;2022-10-23T11:51:29;26.93;;;20.35;;
73678;SDS011;61978;52.742;16.962;2022-10-23T11:59:32;29.32;;;20.12;;
73678;SDS011;61978;52.742;16.962;2022-10-23T12:04:51;25.90;;;16.62;;
73678;SDS011;61978;52.742;16.962;2022-10-23T12:07:23;22.15;;;16.93;;
73678;SDS011;61978;52.742;16.962;2022-10-23T12:15:32;23.32;;;16.07;;
73678;SDS011;61978;52.742;16.962;2022-10-23T12:17:41;20.97;;;16.50;;
73678;SDS011;61978;52.742;16.962;2022-10-23T12:28:32;28.98;;;19.42;;
73678;SDS011;61978;52.742;16.962;2022-10-23T12:39:26;24.05;;;16.25;;
73678;SDS011;61978;52.742;16.962;2022-10-23T12:41:55;26.25;;;15.03;;
73678;SDS011;61978;52.742;16.962;2022-10-23T12:44:22;19.77;;;15.18;;
73678;SDS011;61978;52.742;16.962;2022-10-23T12:46:55;22.62;;;15.25;;
73678;SDS011;61978;52.742;16.962;2022-10-23T12:49:24;26.37;;;17.05;;
73678;SDS011;61978;52.742;16.962;2022-10-23T12:52:04;22.25;;;15.50;;
73678;SDS011;61978;52.742;16.962;2022-10-23T12:54:37;24.55;;;14.60;;
73678;SDS011;61978;52.742;16.962;2022-10-23T12:57:13;24.60;;;14.68;;
73678;SDS011;61978;52.742;16.962;2022-10-23T12:59:41;19.27;;;13.35;;
73678;SDS011;61978;52.742;16.962;2022-10-23T13:02:24;24.77;;;13.90;;
73678;SDS011;61978;52.742;16.962;2022-10-23T13:04:54;20.32;;;12.55;;
73678;SDS011;61978;52.742;16.962;2022-10-23T13:07:27;22.58;;;14.55;;
73678;SDS011;61978;52.742;16.962;2022-10-23T13:09:58;17.48;;;11.28;;
73678;SDS011;61978;52.742;16.962;2022-10-23T13:28:43;18.77;;;11.85;;
73678;SDS011;61978;52.742;16.962;2022-10-23T13:33:41;23.70;;;12.88;;
73678;SDS011;61978;52.742;16.962;2022-10-23T13:39:02;22.42;;;14.90;;
73678;SDS011;61978;52.742;16.962;2022-10-23T13:41:35;20.95;;;13.68;;
73678;SDS011;61978;52.742;16.962;2022-10-23T13:44:04;18.70;;;13.25;;
73678;SDS011;61978;52.742;16.962;2022-10-23T13:46:30;25.02;;;14.73;;
73678;SDS011;61978;52.742;16.962;2022-10-23T13:48:57;74.05;;;15.35;;
73678;SDS011;61978;52.742;16.962;2022-10-23T13:51:29;19.05;;;14.13;;
73678;SDS011;61978;52.742;16.962;2022-10-23T13:54:00;23.92;;;16.00;;
73678;SDS011;61978;52.742;16.962;2022-10-23T13:56:27;21.75;;;14.38;;
73678;SDS011;61978;52.742;16.962;2022-10-23T13:59:00;22.37;;;14.70;;
73678;SDS011;61978;52.742;16.962;2022-10-23T14:01:30;25.40;;;15.18;;
73678;SDS011;61978;52.742;16.962;2022-10-23T14:03:58;26.87;;;21.12;;
73678;SDS011;61978;52.742;16.962;2022-10-23T14:06:24;30.60;;;22.73;;
73678;SDS011;61978;52.742;16.962;2022-10-23T14:08:51;27.05;;;22.55;;
73678;SDS011;61978;52.742;16.962;2022-10-23T14:11:18;28.92;;;22.22;;
73678;SDS011;61978;52.742;16.962;2022-10-23T14:13:45;37.25;;;24.65;;
73678;SDS011;61978;52.742;16.962;2022-10-23T14:16:13;28.02;;;22.48;;
73678;SDS011;61978;52.742;16.962;2022-10-23T14:18:40;30.60;;;22.75;;
73678;SDS011;61978;52.742;16.962;2022-10-23T14:21:07;35.58;;;23.42;;
73678;SDS011;61978;52.742;16.962;2022-10-23T14:23:36;29.12;;;22.10;;
73678;SDS011;61978;52.742;16.962;2022-10-23T14:26:03;32.17;;;23.92;;
73678;SDS011;61978;52.742;16.962;2022-10-23T14:28:33;30.75;;;23.10;;
73678;SDS011;61978;52.742;16.962;2022-10-23T14:31:06;29.92;;;23.73;;
73678;SDS011;61978;52.742;16.962;2022-10-23T14:33:35;30.97;;;24.72;;
73678;SDS011;61978;52.742;16.962;2022-10-23T14:36:06;31.75;;;23.45;;
73678;SDS011;61978;52.742;16.962;2022-10-23T14:38:33;34.30;;;24.02;;
73678;SDS011;61978;52.742;16.962;2022-10-23T14:41:00;32.25;;;22.87;;
73678;SDS011;61978;52.742;16.962;2022-10-23T14:43:26;33.15;;;24.67;;
73678;SDS011;61978;52.742;16.962;2022-10-23T14:45:53;32.80;;;24.02;;
73678;SDS011;61978;52.742;16.962;2022-10-23T14:48:21;30.52;;;23.27;;
73678;SDS011;61978;52.742;16.962;2022-10-23T14:50:48;34.23;;;25.92;;
73678;SDS011;61978;52.742;16.962;2022-10-23T14:53:16;31.25;;;25.37;;
73678;SDS011;61978;52.742;16.962;2022-10-23T14:55:42;45.55;;;30.75;;
73678;SDS011;61978;52.742;16.962;2022-10-23T14:58:08;41.13;;;29.00;;
73678;SDS011;61978;52.742;16.962;2022-10-23T15:00:35;41.05;;;29.40;;
73678;SDS011;61978;52.742;16.962;2022-10-23T15:03:03;44.33;;;28.55;;
73678;SDS011;61978;52.742;16.962;2022-10-23T15:05:29;47.03;;;28.92;;
73678;SDS011;61978;52.742;16.962;2022-10-23T15:07:56;45.25;;;30.70;;
73678;SDS011;61978;52.742;16.962;2022-10-23T15:10:23;37.30;;;27.37;;
73678;SDS011;61978;52.742;16.962;2022-10-23T15:12:50;36.85;;;27.27;;
73678;SDS011;61978;52.742;16.962;2022-10-23T15:15:16;40.03;;;26.82;;
73678;SDS011;61978;52.742;16.962;2022-10-23T15:17:43;36.42;;;26.52;;
73678;SDS011;61978;52.742;16.962;2022-10-23T15:20:09;35.00;;;25.52;;
73678;SDS011;61978;52.742;16.962;2022-10-23T15:22:36;32.53;;;24.30;;
73678;SDS011;61978;52.742;16.962;2022-10-23T15:25:02;32.73;;;24.67;;
73678;SDS011;61978;52.742;16.962;2022-10-23T15:27:29;35.88;;;25.62;;
73678;SDS011;61978;52.742;16.962;2022-10-23T15:29:55;39.60;;;28.30;;
73678;SDS011;61978;52.742;16.962;2022-10-23T15:32:22;42.65;;;30.90;;
73678;SDS011;61978;52.742;16.962;2022-10-23T15:34:48;57.60;;;39.13;;
73678;SDS011;61978;52.742;16.962;2022-10-23T15:37:16;46.95;;;29.57;;
73678;SDS011;61978;52.742;16.962;2022-10-23T15:39:46;46.35;;;32.45;;
73678;SDS011;61978;52.742;16.962;2022-10-23T15:42:12;43.87;;;29.50;;
73678;SDS011;61978;52.742;16.962;2022-10-23T15:44:39;48.85;;;30.55;;
73678;SDS011;61978;52.742;16.962;2022-10-23T15:47:06;47.83;;;31.62;;
73678;SDS011;61978;52.742;16.962;2022-10-23T15:49:32;50.08;;;31.52;;
73678;SDS011;61978;52.742;16.962;2022-10-23T15:51:58;51.98;;;30.82;;
73678;SDS011;61978;52.742;16.962;2022-10-23T15:54:27;83.72;;;49.18;;
73678;SDS011;61978;52.742;16.962;2022-10-23T15:56:54;71.67;;;40.17;;
73678;SDS011;61978;52.742;16.962;2022-10-23T15:59:23;66.20;;;41.25;;
73678;SDS011;61978;52.742;16.962;2022-10-23T16:01:52;87.45;;;48.45;;
73678;SDS011;61978;52.742;16.962;2022-10-23T16:04:20;135.45;;;62.73;;
73678;SDS011;61978;52.742;16.962;2022-10-23T16:06:48;169.02;;;72.65;;
73678;SDS011;61978;52.742;16.962;2022-10-23T16:09:17;169.68;;;63.02;;
73678;SDS011;61978;52.742;16.962;2022-10-23T16:11:46;113.88;;;48.83;;
73678;SDS011;61978;52.742;16.962;2022-10-23T16:14:13;73.10;;;38.08;;
73678;SDS011;61978;52.742;16.962;2022-10-23T16:16:42;51.48;;;32.08;;
73678;SDS011;61978;52.742;16.962;2022-10-23T16:19:11;59.30;;;34.92;;
73678;SDS011;61978;52.742;16.962;2022-10-23T16:21:38;55.15;;;33.42;;
73678;SDS011;61978;52.742;16.962;2022-10-23T16:24:08;56.00;;;33.15;;
73678;SDS011;61978;52.742;16.962;2022-10-23T16:26:40;53.93;;;33.23;;
73678;SDS011;61978;52.742;16.962;2022-10-23T16:29:12;48.08;;;32.20;;
73678;SDS011;61978;52.742;16.962;2022-10-23T16:31:40;51.48;;;33.10;;
73678;SDS011;61978;52.742;16.962;2022-10-23T16:34:06;60.20;;;34.98;;
73678;SDS011;61978;52.742;16.962;2022-10-23T16:36:36;62.43;;;33.92;;
73678;SDS011;61978;52.742;16.962;2022-10-23T16:39:08;58.52;;;33.88;;
73678;SDS011;61978;52.742;16.962;2022-10-23T16:41:54;57.83;;;31.60;;